Time;durP1;ratioP1;P1;durP2;ratioP2;P2;SDS_P1;SDS_P2;PMS_P1;PMS_P2;Temp;Humidity;BMP_temperature;BMP_pressure;BME280_temperature;BME280_humidity;BME280_pressure;Samples;Min_cycle;Max_cycle;Signal;HPM_P1;HPM_P2
2021/11/22 00:01:27;;;;;;;25.58;11.43;;;;;;;;;;6061423;29;20044;-65
2021/11/22 00:04:28;;;;;;;24.90;11.75;;;;;;;;;;6081812;29;20040;-65
2021/11/22 00:07:30;;;;;;;24.85;12.02;;;;;;;;;;6068730;29;20107;-65
2021/11/22 00:10:33;;;;;;;22.98;11.07;;;;;;;;;;6069372;29;20036;-66
2021/11/22 00:13:34;;;;;;;25.58;11.65;;;;;;;;;;6084424;29;20047;-65
2021/11/22 00:16:36;;;;;;;24.38;12.35;;;;;;;;;;6062261;29;20492;-65
2021/11/22 00:19:37;;;;;;;25.20;12.70;;;;;;;;;;6078167;29;20041;-65
2021/11/22 00:22:39;;;;;;;22.75;12.10;;;;;;;;;;6068152;29;20201;-65
2021/11/22 00:25:42;;;;;;;21.98;11.10;;;;;;;;;;6072561;29;20238;-65
2021/11/22 00:28:43;;;;;;;24.88;12.18;;;;;;;;;;6081078;29;20108;-65
2021/11/22 00:31:48;;;;;;;26.50;11.68;;;;;;;;;;6071746;29;20087;-65
2021/11/22 00:34:55;;;;;;;26.88;12.52;;;;;;;;;;6075598;29;20131;-65
2021/11/22 00:37:56;;;;;;;28.20;13.30;;;;;;;;;;6074417;29;20157;-65
2021/11/22 00:40:59;;;;;;;28.13;13.38;;;;;;;;;;6072895;29;20061;-65
2021/11/22 00:44:00;;;;;;;32.58;14.38;;;;;;;;;;6080996;29;20512;-64
2021/11/22 00:47:02;;;;;;;33.25;16.45;;;;;;;;;;6076400;29;20056;-65
2021/11/22 00:50:03;;;;;;;33.90;15.00;;;;;;;;;;6098344;29;20194;-65
2021/11/22 00:53:05;;;;;;;30.58;17.15;;;;;;;;;;6086420;29;20044;-65
2021/11/22 00:56:08;;;;;;;32.58;16.42;;;;;;;;;;6076520;29;20052;-65
2021/11/22 00:59:10;;;;;;;35.28;16.67;;;;;;;;;;6092591;29;20488;-65
2021/11/22 01:02:11;;;;;;;39.28;17.85;;;;;;;;;;6065984;29;20044;-65
2021/11/22 01:05:13;;;;;;;40.28;17.70;;;;;;;;;;6075997;29;20044;-66
2021/11/22 01:08:14;;;;;;;41.58;18.70;;;;;;;;;;6085823;29;20053;-65
2021/11/22 01:11:17;;;;;;;44.30;19.42;;;;;;;;;;6087121;29;20404;-65
2021/11/22 01:14:18;;;;;;;49.05;18.83;;;;;;;;;;6082765;29;20044;-65
2021/11/22 01:17:20;;;;;;;51.85;19.38;;;;;;;;;;6068624;29;20051;-66
2021/11/22 01:20:28;;;;;;;46.92;19.85;;;;;;;;;;6073061;29;20131;-63
2021/11/22 01:23:29;;;;;;;47.60;19.70;;;;;;;;;;6080828;29;20052;-65
2021/11/22 01:26:32;;;;;;;52.70;20.90;;;;;;;;;;6073397;29;20131;-66
2021/11/22 01:29:34;;;;;;;51.05;20.38;;;;;;;;;;6080788;29;20060;-66
2021/11/22 01:32:35;;;;;;;58.60;21.83;;;;;;;;;;6064603;29;20192;-65
2021/11/22 01:35:37;;;;;;;50.80;20.35;;;;;;;;;;6073558;29;20103;-65
2021/11/22 01:38:39;;;;;;;48.22;21.15;;;;;;;;;;6079412;29;20059;-65
2021/11/22 01:41:42;;;;;;;48.55;20.70;;;;;;;;;;6068587;29;20044;-66
2021/11/22 01:44:43;;;;;;;57.30;21.67;;;;;;;;;;6080885;29;20048;-65
2021/11/22 01:47:45;;;;;;;55.10;22.63;;;;;;;;;;6075549;29;20540;-65
2021/11/22 01:50:47;;;;;;;53.40;21.38;;;;;;;;;;6074137;29;20087;-66
2021/11/22 01:53:49;;;;;;;57.22;21.45;;;;;;;;;;6078887;29;20054;-66
2021/11/22 01:56:52;;;;;;;61.28;23.00;;;;;;;;;;6072423;29;20048;-65
2021/11/22 01:59:53;;;;;;;64.20;22.50;;;;;;;;;;6081212;29;20127;-65
2021/11/22 02:02:55;;;;;;;60.92;24.10;;;;;;;;;;6065489;29;20064;-65
2021/11/22 02:05:56;;;;;;;56.10;20.88;;;;;;;;;;6072172;29;20067;-65
2021/11/22 02:08:58;;;;;;;58.83;22.17;;;;;;;;;;6078441;29;20076;-65
2021/11/22 02:12:01;;;;;;;60.25;21.05;;;;;;;;;;6068857;29;20413;-65
2021/11/22 02:15:03;;;;;;;59.30;21.63;;;;;;;;;;6081947;29;20056;-65
2021/11/22 02:18:05;;;;;;;63.20;22.95;;;;;;;;;;6063272;29;20044;-65
2021/11/22 02:21:08;;;;;;;68.15;22.58;;;;;;;;;;6068418;29;20131;-65
2021/11/22 02:24:09;;;;;;;59.85;22.30;;;;;;;;;;6080185;29;20151;-65
2021/11/22 02:27:10;;;;;;;69.60;23.02;;;;;;;;;;6078975;29;20056;-65
2021/11/22 02:30:13;;;;;;;66.38;23.50;;;;;;;;;;6073460;29;20120;-66
2021/11/22 02:33:16;;;;;;;69.47;25.52;;;;;;;;;;6070660;29;20071;-65
2021/11/22 02:36:18;;;;;;;75.88;24.52;;;;;;;;;;6065606;29;20591;-65
2021/11/22 02:39:20;;;;;;;81.97;26.60;;;;;;;;;;6091870;29;20048;-65
2021/11/22 02:42:25;;;;;;;75.45;26.77;;;;;;;;;;6074603;29;20058;-65
2021/11/22 02:45:26;;;;;;;74.22;26.77;;;;;;;;;;6074592;29;20036;-66
2021/11/22 02:48:28;;;;;;;76.45;27.38;;;;;;;;;;6071626;29;20056;-65
2021/11/22 02:51:31;;;;;;;72.68;26.05;;;;;;;;;;6066609;29;20055;-66
2021/11/22 02:54:32;;;;;;;78.05;26.83;;;;;;;;;;6077738;29;20044;-65
2021/11/22 02:57:33;;;;;;;72.32;27.48;;;;;;;;;;6074914;29;20072;-65
2021/11/22 03:00:36;;;;;;;80.30;28.38;;;;;;;;;;6078790;29;20036;-66
2021/11/22 03:03:38;;;;;;;84.03;28.98;;;;;;;;;;6077051;29;20787;-65
2021/11/22 03:06:41;;;;;;;94.20;27.90;;;;;;;;;;6076385;29;20070;-66
2021/11/22 03:09:42;;;;;;;89.90;29.27;;;;;;;;;;6088547;29;20131;-65
2021/11/22 03:12:45;;;;;;;86.20;28.90;;;;;;;;;;6080505;29;20062;-65
2021/11/22 03:15:46;;;;;;;93.45;29.13;;;;;;;;;;6066879;29;20409;-65
2021/11/22 03:18:47;;;;;;;82.25;28.67;;;;;;;;;;6076015;29;20045;-66
2021/11/22 03:21:50;;;;;;;88.93;29.63;;;;;;;;;;6069099;29;20052;-66
2021/11/22 03:24:52;;;;;;;92.43;30.13;;;;;;;;;;6075610;29;20143;-65
2021/11/22 03:27:53;;;;;;;93.80;31.10;;;;;;;;;;6068562;29;20572;-65
2021/11/22 03:30:55;;;;;;;93.82;29.92;;;;;;;;;;6072575;29;20124;-65
2021/11/22 03:33:56;;;;;;;100.90;30.25;;;;;;;;;;6068698;29;20140;-66
2021/11/22 03:37:02;;;;;;;92.97;31.55;;;;;;;;;;6066788;29;20051;-64
2021/11/22 03:40:04;;;;;;;90.82;29.38;;;;;;;;;;6080665;29;20420;-66
2021/11/22 03:43:14;;;;;;;83.65;30.35;;;;;;;;;;6072581;29;20056;-65
2021/11/22 03:46:17;;;;;;;88.07;26.75;;;;;;;;;;6066218;29;20062;-66
2021/11/22 03:49:19;;;;;;;85.25;28.00;;;;;;;;;;6077162;29;20139;-66
2021/11/22 03:52:22;;;;;;;74.85;27.38;;;;;;;;;;6070502;29;20147;-66
2021/11/22 03:55:23;;;;;;;79.88;26.30;;;;;;;;;;6071456;29;20107;-65
2021/11/22 03:58:25;;;;;;;73.50;26.02;;;;;;;;;;6086119;29;20044;-65
2021/11/22 04:01:26;;;;;;;82.25;26.15;;;;;;;;;;6066552;29;20127;-65
2021/11/22 04:04:28;;;;;;;78.32;24.98;;;;;;;;;;6079147;29;20056;-64
2021/11/22 04:07:30;;;;;;;74.80;25.20;;;;;;;;;;6073327;29;20100;-67
2021/11/22 04:10:32;;;;;;;75.82;24.50;;;;;;;;;;6070525;29;20416;-67
2021/11/22 04:13:33;;;;;;;74.43;25.17;;;;;;;;;;6080930;29;20075;-67
2021/11/22 04:16:35;;;;;;;71.28;24.65;;;;;;;;;;6061755;29;20243;-67
2021/11/22 04:19:36;;;;;;;79.65;23.80;;;;;;;;;;6099371;29;20139;-64
2021/11/22 04:22:39;;;;;;;60.00;23.52;;;;;;;;;;6076183;29;20381;-66
2021/11/22 04:25:41;;;;;;;69.78;23.33;;;;;;;;;;6073798;29;20143;-66
2021/11/22 04:28:42;;;;;;;74.72;23.85;;;;;;;;;;6083504;29;20178;-66
2021/11/22 04:31:44;;;;;;;63.20;25.23;;;;;;;;;;6067184;29;20041;-66
2021/11/22 04:34:45;;;;;;;59.25;22.75;;;;;;;;;;6083900;29;20060;-66
2021/11/22 04:37:48;;;;;;;61.13;22.00;;;;;;;;;;6069729;29;20139;-66
2021/11/22 04:40:49;;;;;;;68.68;22.38;;;;;;;;;;6077971;29;21147;-66
2021/11/22 04:43:51;;;;;;;58.95;21.73;;;;;;;;;;6087951;29;20556;-66
2021/11/22 04:46:52;;;;;;;65.65;22.23;;;;;;;;;;6069215;29;20134;-66
2021/11/22 04:49:54;;;;;;;53.80;21.95;;;;;;;;;;6087309;29;20051;-66
2021/11/22 04:52:57;;;;;;;55.85;20.42;;;;;;;;;;6086581;29;20167;-67
2021/11/22 04:55:59;;;;;;;61.85;22.40;;;;;;;;;;6091380;29;20052;-66
2021/11/22 04:59:00;;;;;;;61.33;22.90;;;;;;;;;;6101217;29;20131;-65
2021/11/22 05:02:02;;;;;;;62.55;21.77;;;;;;;;;;6073822;29;20066;-66
2021/11/22 05:05:03;;;;;;;55.45;21.15;;;;;;;;;;6086825;29;20566;-66
2021/11/22 05:08:07;;;;;;;57.55;20.45;;;;;;;;;;6072735;29;22160;-66
2021/11/22 05:11:09;;;;;;;63.58;20.88;;;;;;;;;;6069760;29;20091;-66
2021/11/22 05:14:10;;;;;;;57.50;20.98;;;;;;;;;;6083339;29;20103;-66
2021/11/22 05:17:12;;;;;;;56.40;22.75;;;;;;;;;;6070007;29;20473;-66
2021/11/22 05:20:13;;;;;;;56.20;21.70;;;;;;;;;;6073025;29;20139;-67
2021/11/22 05:23:16;;;;;;;71.22;22.05;;;;;;;;;;6083935;29;20044;-66
2021/11/22 05:26:17;;;;;;;64.53;22.70;;;;;;;;;;6081695;29;20070;-66
2021/11/22 05:29:19;;;;;;;48.78;20.55;;;;;;;;;;6084440;29;20143;-66
2021/11/22 05:32:21;;;;;;;64.00;20.85;;;;;;;;;;6068524;29;20071;-67
2021/11/22 05:35:22;;;;;;;55.00;20.10;;;;;;;;;;6076237;29;20284;-67
2021/11/22 05:38:25;;;;;;;50.90;19.52;;;;;;;;;;6084613;29;20107;-66
2021/11/22 05:41:27;;;;;;;57.90;21.13;;;;;;;;;;6077698;29;20052;-66
2021/11/22 05:44:28;;;;;;;51.92;19.38;;;;;;;;;;6095486;29;20512;-67
2021/11/22 05:47:30;;;;;;;64.65;18.85;;;;;;;;;;6077263;29;20091;-66
2021/11/22 05:50:31;;;;;;;50.10;19.35;;;;;;;;;;6075340;29;20231;-66
2021/11/22 05:53:35;;;;;;;45.42;18.90;;;;;;;;;;6090984;29;20457;-66
2021/11/22 05:56:36;;;;;;;57.00;17.83;;;;;;;;;;6079563;29;20063;-66
2021/11/22 05:59:37;;;;;;;55.17;16.80;;;;;;;;;;6087798;29;20049;-66
2021/11/22 06:02:39;;;;;;;52.70;18.58;;;;;;;;;;6074799;29;20040;-66
2021/11/22 06:05:40;;;;;;;55.05;19.60;;;;;;;;;;6074804;29;20160;-66
2021/11/22 06:08:43;;;;;;;45.03;18.60;;;;;;;;;;6091985;29;20041;-66
2021/11/22 06:11:44;;;;;;;53.17;19.77;;;;;;;;;;6079854;29;20107;-66
2021/11/22 06:14:46;;;;;;;54.78;21.15;;;;;;;;;;6079903;29;20090;-65
2021/11/22 06:17:47;;;;;;;65.85;21.08;;;;;;;;;;6068102;29;20071;-66
2021/11/22 06:20:49;;;;;;;57.17;23.05;;;;;;;;;;6075620;29;20074;-65
2021/11/22 06:23:52;;;;;;;58.88;19.77;;;;;;;;;;6097331;29;20141;-66
2021/11/22 06:26:55;;;;;;;61.65;22.50;;;;;;;;;;6080451;29;20048;-66
2021/11/22 06:29:57;;;;;;;63.97;23.90;;;;;;;;;;6088912;29;20056;-66
2021/11/22 06:32:58;;;;;;;67.63;24.33;;;;;;;;;;6073285;29;20048;-66
2021/11/22 06:36:00;;;;;;;61.53;25.02;;;;;;;;;;6081794;29;20134;-66
2021/11/22 06:39:03;;;;;;;66.60;23.20;;;;;;;;;;6083904;29;20054;-66
2021/11/22 06:42:05;;;;;;;64.90;24.95;;;;;;;;;;6080217;29;20083;-66
2021/11/22 06:45:08;;;;;;;65.30;24.63;;;;;;;;;;6089295;29;20067;-67
2021/11/22 06:48:10;;;;;;;63.00;22.23;;;;;;;;;;6078080;29;20130;-67
2021/11/22 06:51:11;;;;;;;59.88;24.10;;;;;;;;;;6082283;29;20322;-67
2021/11/22 06:54:14;;;;;;;61.15;25.73;;;;;;;;;;6085052;29;20047;-67
2021/11/22 06:57:15;;;;;;;62.20;26.10;;;;;;;;;;6079930;29;20135;-67
2021/11/22 07:00:18;;;;;;;57.60;22.63;;;;;;;;;;6077471;29;20619;-67
2021/11/22 07:03:19;;;;;;;53.33;23.70;;;;;;;;;;6077554;29;20048;-67
2021/11/22 07:06:21;;;;;;;55.65;24.67;;;;;;;;;;6072789;29;20087;-67
2021/11/22 07:09:25;;;;;;;53.55;23.92;;;;;;;;;;6073730;29;20873;-66
2021/11/22 07:12:27;;;;;;;53.75;21.90;;;;;;;;;;6081040;29;20048;-66
2021/11/22 07:15:34;;;;;;;59.05;22.40;;;;;;;;;;6077472;29;20032;-67
2021/11/22 07:18:35;;;;;;;56.88;24.00;;;;;;;;;;6083659;29;20107;-67
2021/11/22 07:21:37;;;;;;;57.80;24.75;;;;;;;;;;6068572;29;20059;-66
2021/11/22 07:24:41;;;;;;;48.78;23.33;;;;;;;;;;6091988;29;20196;-66
2021/11/22 07:27:42;;;;;;;50.75;23.15;;;;;;;;;;6069675;29;20044;-66
2021/11/22 07:30:44;;;;;;;49.90;23.02;;;;;;;;;;6069705;29;20642;-67
2021/11/22 07:33:45;;;;;;;50.47;22.58;;;;;;;;;;6084728;29;20055;-66
2021/11/22 07:36:47;;;;;;;43.75;22.77;;;;;;;;;;6083511;29;20076;-66
2021/11/22 07:39:50;;;;;;;45.40;22.23;;;;;;;;;;6099651;29;20187;-66
2021/11/22 07:42:52;;;;;;;45.03;22.02;;;;;;;;;;6103822;29;20051;-66
2021/11/22 07:45:53;;;;;;;46.33;22.08;;;;;;;;;;6086888;29;20644;-67
2021/11/22 07:48:55;;;;;;;42.25;21.60;;;;;;;;;;6102543;29;20063;-66
2021/11/22 07:51:57;;;;;;;40.13;21.27;;;;;;;;;;6090836;29;20106;-66
2021/11/22 07:54:59;;;;;;;39.42;21.55;;;;;;;;;;6097928;29;20105;-66
2021/11/22 07:58:01;;;;;;;43.72;20.88;;;;;;;;;;6093191;29;20099;-66
2021/11/22 08:01:02;;;;;;;40.83;20.13;;;;;;;;;;6103935;29;20171;-67
2021/11/22 08:04:04;;;;;;;42.60;20.30;;;;;;;;;;6095912;29;20180;-66
2021/11/22 08:07:13;;;;;;;40.08;19.48;;;;;;;;;;6093944;29;20160;-66
2021/11/22 08:10:26;;;;;;;41.33;20.58;;;;;;;;;;6080464;29;20056;-66
2021/11/22 08:13:27;;;;;;;41.83;20.40;;;;;;;;;;6079852;29;20067;-66
2021/11/22 08:16:28;;;;;;;37.42;19.75;;;;;;;;;;6070470;29;20430;-67
2021/11/22 08:19:30;;;;;;;38.05;19.05;;;;;;;;;;6092176;29;20052;-67
2021/11/22 08:22:31;;;;;;;34.83;18.08;;;;;;;;;;6081124;29;20045;-67
2021/11/22 08:25:34;;;;;;;34.03;18.30;;;;;;;;;;6078848;29;20052;-66
2021/11/22 08:28:36;;;;;;;30.27;17.63;;;;;;;;;;6098320;29;20486;-66
2021/11/22 08:31:37;;;;;;;34.92;18.55;;;;;;;;;;6074807;29;20124;-66
2021/11/22 08:34:38;;;;;;;36.97;18.48;;;;;;;;;;6086502;29;20180;-66
2021/11/22 08:37:40;;;;;;;33.50;18.08;;;;;;;;;;6073518;29;20136;-67
2021/11/22 08:40:43;;;;;;;30.52;17.95;;;;;;;;;;6086554;29;20146;-66
2021/11/22 08:43:44;;;;;;;36.88;16.52;;;;;;;;;;6097609;29;20077;-66
2021/11/22 08:46:47;;;;;;;29.90;16.77;;;;;;;;;;6075970;29;20123;-66
2021/11/22 08:49:48;;;;;;;36.85;17.30;;;;;;;;;;6092591;29;20055;-66
2021/11/22 08:52:50;;;;;;;32.35;17.55;;;;;;;;;;6083733;29;20172;-66
2021/11/22 08:55:53;;;;;;;33.30;16.75;;;;;;;;;;6086651;29;20394;-66
2021/11/22 08:58:54;;;;;;;29.92;16.95;;;;;;;;;;6097565;29;20185;-65
2021/11/22 09:01:55;;;;;;;31.20;16.67;;;;;;;;;;6077612;29;20048;-65
2021/11/22 09:04:57;;;;;;;37.38;18.60;;;;;;;;;;6092475;29;20060;-66
2021/11/22 09:07:59;;;;;;;36.70;17.33;;;;;;;;;;6084227;29;20140;-67
2021/11/22 09:11:02;;;;;;;31.98;18.08;;;;;;;;;;6083400;29;20056;-66
2021/11/22 09:14:03;;;;;;;34.00;18.80;;;;;;;;;;6084465;29;20056;-66
2021/11/22 09:17:05;;;;;;;36.70;18.40;;;;;;;;;;6080754;29;20397;-66
2021/11/22 09:20:08;;;;;;;33.67;17.70;;;;;;;;;;6083409;29;20559;-67
2021/11/22 09:23:11;;;;;;;34.57;18.57;;;;;;;;;;6090302;29;20060;-66
2021/11/22 09:26:15;;;;;;;32.50;16.90;;;;;;;;;;6088633;29;20085;-66
2021/11/22 09:29:16;;;;;;;29.02;17.48;;;;;;;;;;6097297;29;20131;-66
2021/11/22 09:32:18;;;;;;;35.33;18.27;;;;;;;;;;6074402;29;20158;-67
2021/11/22 09:35:20;;;;;;;30.95;17.60;;;;;;;;;;6084309;29;20044;-67
2021/11/22 09:38:22;;;;;;;31.17;17.00;;;;;;;;;;6085667;29;20044;-66
2021/11/22 09:41:27;;;;;;;32.35;18.08;;;;;;;;;;6090379;29;20107;-66
2021/11/22 09:44:28;;;;;;;28.75;18.48;;;;;;;;;;6098683;29;20045;-66
2021/11/22 09:47:30;;;;;;;36.83;18.17;;;;;;;;;;6082596;29;20176;-67
2021/11/22 09:50:32;;;;;;;30.38;16.40;;;;;;;;;;6087963;29;20154;-67
2021/11/22 09:53:33;;;;;;;27.85;15.80;;;;;;;;;;6104164;29;20131;-66
2021/11/22 09:56:37;;;;;;;27.48;15.32;;;;;;;;;;6091913;29;20114;-67
2021/11/22 09:59:39;;;;;;;27.73;16.17;;;;;;;;;;6109617;29;20055;-66
2021/11/22 10:02:44;;;;;;;24.95;15.38;;;;;;;;;;6091279;29;20825;-66
2021/11/22 10:05:45;;;;;;;27.40;14.45;;;;;;;;;;6088485;29;20040;-66
2021/11/22 10:08:47;;;;;;;26.77;15.80;;;;;;;;;;6106629;29;20058;-66
2021/11/22 10:11:55;;;;;;;24.55;14.77;;;;;;;;;;6080291;29;20057;-67
2021/11/22 10:14:58;;;;;;;28.65;15.73;;;;;;;;;;6081118;29;20099;-66
2021/11/22 10:18:00;;;;;;;26.38;14.70;;;;;;;;;;6082182;29;20059;-67
2021/11/22 10:21:04;;;;;;;25.02;14.88;;;;;;;;;;6087059;29;20052;-66
2021/11/22 10:24:06;;;;;;;24.33;14.93;;;;;;;;;;6097759;29;20131;-66
2021/11/22 10:27:09;;;;;;;29.98;15.75;;;;;;;;;;6087542;29;20099;-67
2021/11/22 10:30:21;;;;;;;24.13;14.05;;;;;;;;;;6083349;29;20099;-67
2021/11/22 10:33:23;;;;;;;21.05;13.75;;;;;;;;;;6083450;29;20176;-67
2021/11/22 10:36:26;;;;;;;23.73;14.40;;;;;;;;;;6081558;29;20044;-65
2021/11/22 10:39:28;;;;;;;22.70;14.48;;;;;;;;;;6093171;29;20063;-67
2021/11/22 10:42:35;;;;;;;25.48;15.00;;;;;;;;;;6083798;29;20180;-65
2021/11/22 10:45:39;;;;;;;22.75;13.73;;;;;;;;;;6087083;29;20127;-67
2021/11/22 10:48:46;;;;;;;21.13;13.20;;;;;;;;;;6093328;29;20051;-67
2021/11/22 10:51:50;;;;;;;19.05;13.48;;;;;;;;;;6092298;29;20062;-67
2021/11/22 10:54:52;;;;;;;23.73;14.10;;;;;;;;;;6101629;29;20048;-67
2021/11/22 10:57:57;;;;;;;20.52;12.45;;;;;;;;;;6089558;29;20383;-67
2021/11/22 11:00:59;;;;;;;17.85;12.32;;;;;;;;;;6098069;29;20667;-67
2021/11/22 11:04:08;;;;;;;17.98;12.32;;;;;;;;;;6097158;29;20408;-67
2021/11/22 11:07:10;;;;;;;18.15;12.18;;;;;;;;;;6094145;29;20135;-67
2021/11/22 11:10:11;;;;;;;19.90;12.52;;;;;;;;;;6085261;29;20056;-68
2021/11/22 11:13:14;;;;;;;18.20;12.52;;;;;;;;;;6077528;29;20058;-67
2021/11/22 11:16:16;;;;;;;20.00;13.00;;;;;;;;;;6068301;29;20048;-67
2021/11/22 11:19:18;;;;;;;15.10;11.00;;;;;;;;;;6090108;29;20132;-67
2021/11/22 11:22:20;;;;;;;15.32;10.68;;;;;;;;;;6081726;29;20052;-67
2021/11/22 11:25:22;;;;;;;17.17;11.32;;;;;;;;;;6086843;29;20139;-68
2021/11/22 11:28:25;;;;;;;12.23;9.20;;;;;;;;;;6097864;29;20048;-67
2021/11/22 11:31:27;;;;;;;11.20;8.43;;;;;;;;;;6079223;29;20044;-67
2021/11/22 11:34:30;;;;;;;12.10;8.32;;;;;;;;;;6093948;29;20404;-68
2021/11/22 11:37:38;;;;;;;12.65;8.35;;;;;;;;;;6070658;29;20102;-67
2021/11/22 11:40:53;;;;;;;11.18;9.18;;;;;;;;;;6087309;29;20040;-67
2021/11/22 11:43:54;;;;;;;;;;;;;;;;;;6092376;29;20055;-67
2021/11/22 11:47:05;;;;;;;13.43;9.35;;;;;;;;;;6079549;29;20004;-67
2021/11/22 11:50:17;;;;;;;12.68;7.80;;;;;;;;;;6091339;29;20052;-68
2021/11/22 11:53:19;;;;;;;9.10;7.50;;;;;;;;;;6093760;29;20055;-67
2021/11/22 11:56:29;;;;;;;10.00;7.93;;;;;;;;;;6084052;29;20125;-67
2021/11/22 11:59:33;;;;;;;10.15;6.57;;;;;;;;;;6095159;29;20052;-67
2021/11/22 12:02:36;;;;;;;7.22;5.75;;;;;;;;;;6079841;29;20054;-67
2021/11/22 12:05:45;;;;;;;8.60;6.13;;;;;;;;;;6083586;29;20139;-67
2021/11/22 12:08:46;;;;;;;9.60;6.10;;;;;;;;;;6098883;29;20078;-67
2021/11/22 12:11:48;;;;;;;9.77;6.90;;;;;;;;;;6069800;29;20408;-67
2021/11/22 12:14:54;;;;;;;10.23;6.60;;;;;;;;;;6084510;29;20048;-67
2021/11/22 12:17:58;;;;;;;10.38;7.28;;;;;;;;;;6077024;29;20107;-67
2021/11/22 12:21:20;;;;;;;9.80;7.25;;;;;;;;;;6084483;29;20181;-67
2021/11/22 12:24:21;;;;;;;12.30;7.13;;;;;;;;;;6093068;29;20501;-66
2021/11/22 12:27:35;;;;;;;9.82;7.05;;;;;;;;;;6083396;29;20049;-66
2021/11/22 12:30:38;;;;;;;9.63;7.20;;;;;;;;;;6063288;29;20177;-67
2021/11/22 12:33:41;;;;;;;10.45;8.30;;;;;;;;;;6080364;29;20095;-67
2021/11/22 12:36:50;;;;;;;13.00;9.38;;;;;;;;;;6074225;29;20509;-66
2021/11/22 12:39:51;;;;;;;12.07;9.50;;;;;;;;;;6095383;29;20052;-66
2021/11/22 12:42:56;;;;;;;14.73;10.82;;;;;;;;;;6085756;29;20048;-66
2021/11/22 12:45:58;;;;;;;18.05;11.93;;;;;;;;;;6086255;29;20135;-67
2021/11/22 12:49:01;;;;;;;11.45;9.10;;;;;;;;;;6096191;29;20644;-66
2021/11/22 12:52:13;;;;;;;10.57;8.30;;;;;;;;;;6087175;29;20164;-67
2021/11/22 12:55:16;;;;;;;10.60;7.75;;;;;;;;;;6088923;29;20246;-67
2021/11/22 12:58:22;;;;;;;9.47;7.93;;;;;;;;;;6095875;29;20044;-66
2021/11/22 13:01:25;;;;;;;12.50;7.68;;;;;;;;;;6084288;29;20052;-67
2021/11/22 13:04:44;;;;;;;9.50;7.65;;;;;;;;;;6097709;29;20130;-66
2021/11/22 13:07:46;;;;;;;8.65;6.68;;;;;;;;;;6087239;29;20207;-67
2021/11/22 13:10:50;;;;;;;9.80;6.93;;;;;;;;;;6089123;29;20052;-67
2021/11/22 13:13:57;;;;;;;11.23;7.45;;;;;;;;;;6096962;29;20056;-67
2021/11/22 13:16:59;;;;;;;8.60;6.18;;;;;;;;;;6075402;29;20135;-66
2021/11/22 13:20:02;;;;;;;8.82;6.88;;;;;;;;;;6096602;29;20056;-66
2021/11/22 13:23:10;;;;;;;8.27;6.45;;;;;;;;;;6088598;29;20047;-66
2021/11/22 13:26:13;;;;;;;8.48;6.50;;;;;;;;;;6085632;29;20056;-66
2021/11/22 13:29:16;;;;;;;8.65;6.55;;;;;;;;;;6089113;29;20099;-67
2021/11/22 13:32:17;;;;;;;9.55;6.93;;;;;;;;;;6078281;29;20048;-67
2021/11/22 13:35:23;;;;;;;9.00;6.93;;;;;;;;;;6089147;29;20377;-67
2021/11/22 13:38:24;;;;;;;9.45;7.00;;;;;;;;;;6097031;29;20100;-66
2021/11/22 13:41:26;;;;;;;9.80;7.35;;;;;;;;;;6087937;29;20044;-66
2021/11/22 13:44:28;;;;;;;10.27;7.90;;;;;;;;;;6090844;29;20195;-66
2021/11/22 13:47:31;;;;;;;14.13;11.13;;;;;;;;;;6082450;29;20127;-67
2021/11/22 13:50:44;;;;;;;13.93;9.80;;;;;;;;;;6087632;29;20619;-67
2021/11/22 13:53:45;;;;;;;14.65;11.55;;;;;;;;;;6097351;29;20055;-66
2021/11/22 13:56:48;;;;;;;13.82;11.07;;;;;;;;;;6083740;29;20061;-66
2021/11/22 13:59:50;;;;;;;18.17;12.25;;;;;;;;;;6095407;29;20044;-67
2021/11/22 14:02:52;;;;;;;16.80;11.27;;;;;;;;;;6076833;29;20044;-67
2021/11/22 14:05:55;;;;;;;18.08;12.30;;;;;;;;;;6086292;29;20386;-66
2021/11/22 14:08:56;;;;;;;18.83;13.00;;;;;;;;;;6089559;29;20242;-67
2021/11/22 14:11:58;;;;;;;16.98;12.07;;;;;;;;;;6080060;29;20072;-66
2021/11/22 14:15:00;;;;;;;18.02;11.88;;;;;;;;;;6082336;29;20054;-66
2021/11/22 14:18:03;;;;;;;20.75;12.40;;;;;;;;;;6077661;29;20052;-66
2021/11/22 14:21:05;;;;;;;15.85;11.90;;;;;;;;;;6087024;29;20063;-66
2021/11/22 14:24:08;;;;;;;16.42;12.38;;;;;;;;;;6094355;29;20067;-66
2021/11/22 14:27:17;;;;;;;19.95;12.75;;;;;;;;;;6092276;29;20089;-67
2021/11/22 14:30:26;;;;;;;15.48;12.70;;;;;;;;;;6080633;29;20052;-67
2021/11/22 14:33:28;;;;;;;17.85;12.00;;;;;;;;;;6078893;29;20599;-66
2021/11/22 14:36:38;;;;;;;16.75;11.98;;;;;;;;;;6076963;29;20560;-66
2021/11/22 14:39:39;;;;;;;17.70;12.75;;;;;;;;;;6097045;29;20052;-67
2021/11/22 14:42:41;;;;;;;12.95;10.95;;;;;;;;;;6081091;29;20043;-66
2021/11/22 14:45:43;;;;;;;12.40;10.27;;;;;;;;;;6082046;29;20036;-67
2021/11/22 14:48:45;;;;;;;11.05;9.18;;;;;;;;;;6087538;29;20127;-66
2021/11/22 14:51:49;;;;;;;11.60;8.93;;;;;;;;;;6082664;29;20127;-67
2021/11/22 14:54:51;;;;;;;10.73;8.77;;;;;;;;;;6096506;29;20044;-66
2021/11/22 14:57:52;;;;;;;10.20;8.82;;;;;;;;;;6087898;29;20131;-67
2021/11/22 15:00:53;;;;;;;10.50;8.82;;;;;;;;;;6080583;29;20048;-67
2021/11/22 15:03:55;;;;;;;11.43;8.45;;;;;;;;;;6092940;29;20143;-67
2021/11/22 15:07:01;;;;;;;11.00;8.82;;;;;;;;;;6086276;29;20067;-66
2021/11/22 15:10:05;;;;;;;10.68;8.90;;;;;;;;;;6089067;29;20079;-66
2021/11/22 15:13:13;;;;;;;11.13;8.90;;;;;;;;;;6080632;29;20056;-67
2021/11/22 15:16:14;;;;;;;11.15;9.35;;;;;;;;;;6073485;29;20063;-66
2021/11/22 15:19:16;;;;;;;13.57;9.38;;;;;;;;;;6098364;29;20054;-66
2021/11/22 15:22:19;;;;;;;12.23;8.00;;;;;;;;;;6089331;29;20537;-66
2021/11/22 15:25:21;;;;;;;13.65;9.82;;;;;;;;;;6078027;29;20080;-67
2021/11/22 15:28:22;;;;;;;13.98;10.55;;;;;;;;;;6088867;29;20081;-66
2021/11/22 15:31:24;;;;;;;11.18;9.30;;;;;;;;;;6071517;29;20180;-66
2021/11/22 15:34:27;;;;;;;10.77;7.97;;;;;;;;;;6086010;29;20044;-66
2021/11/22 15:37:29;;;;;;;8.80;7.40;;;;;;;;;;6073191;29;20048;-67
2021/11/22 15:40:31;;;;;;;8.88;6.40;;;;;;;;;;6086735;29;20044;-67
2021/11/22 15:43:32;;;;;;;7.40;6.45;;;;;;;;;;6096666;29;20056;-66
2021/11/22 15:46:34;;;;;;;7.30;6.32;;;;;;;;;;6081021;29;20127;-67
2021/11/22 15:49:36;;;;;;;9.70;7.55;;;;;;;;;;6093501;29;20192;-66
2021/11/22 15:52:39;;;;;;;10.38;9.10;;;;;;;;;;6079849;29;20139;-66
2021/11/22 15:55:40;;;;;;;14.05;10.10;;;;;;;;;;6081536;29;20044;-65
2021/11/22 15:58:42;;;;;;;14.48;10.57;;;;;;;;;;6098970;29;20185;-67
2021/11/22 16:01:44;;;;;;;15.65;10.52;;;;;;;;;;6080318;29;20071;-67
2021/11/22 16:04:45;;;;;;;14.80;10.63;;;;;;;;;;6102470;29;20134;-68
2021/11/22 16:07:48;;;;;;;15.05;11.10;;;;;;;;;;6097701;29;20060;-67
2021/11/22 16:10:49;;;;;;;11.10;9.15;;;;;;;;;;6086770;29;20044;-68
2021/11/22 16:13:51;;;;;;;10.77;8.30;;;;;;;;;;6083686;29;20115;-67
2021/11/22 16:16:53;;;;;;;10.73;8.02;;;;;;;;;;6064197;29;20064;-68
2021/11/22 16:19:55;;;;;;;10.90;8.70;;;;;;;;;;6103933;29;20081;-67
2021/11/22 16:22:58;;;;;;;10.05;8.48;;;;;;;;;;6085807;29;20112;-67
2021/11/22 16:25:59;;;;;;;11.10;8.45;;;;;;;;;;6087492;29;20540;-67
2021/11/22 16:29:00;;;;;;;12.93;9.27;;;;;;;;;;6088629;29;20147;-68
2021/11/22 16:32:03;;;;;;;13.85;9.80;;;;;;;;;;6066001;29;20128;-67
2021/11/22 16:35:05;;;;;;;12.00;10.13;;;;;;;;;;6093798;29;20219;-68
2021/11/22 16:38:08;;;;;;;16.20;12.02;;;;;;;;;;6089612;29;20060;-67
2021/11/22 16:41:09;;;;;;;13.05;10.65;;;;;;;;;;6072837;29;20403;-67
2021/11/22 16:44:11;;;;;;;15.13;11.07;;;;;;;;;;6093641;29;20059;-67
2021/11/22 16:47:12;;;;;;;12.63;10.32;;;;;;;;;;6080998;29;20587;-67
2021/11/22 16:50:16;;;;;;;15.00;10.40;;;;;;;;;;6089226;29;20060;-67
2021/11/22 16:53:19;;;;;;;14.63;11.37;;;;;;;;;;6099033;29;20048;-67
2021/11/22 16:56:20;;;;;;;15.05;11.35;;;;;;;;;;6088544;29;20549;-67
2021/11/22 16:59:22;;;;;;;15.20;10.98;;;;;;;;;;6100459;29;20080;-68
2021/11/22 17:02:24;;;;;;;16.70;11.43;;;;;;;;;;6060597;29;20049;-68
2021/11/22 17:05:25;;;;;;;14.52;10.95;;;;;;;;;;6080756;29;20559;-68
2021/11/22 17:08:28;;;;;;;13.45;10.80;;;;;;;;;;6094986;29;20053;-67
2021/11/22 17:11:30;;;;;;;14.25;10.38;;;;;;;;;;6068253;29;20084;-67
2021/11/22 17:14:31;;;;;;;17.58;10.50;;;;;;;;;;6056626;29;20155;-67
2021/11/22 17:17:33;;;;;;;13.20;9.93;;;;;;;;;;6081302;29;20040;-67
2021/11/22 17:20:35;;;;;;;13.30;10.05;;;;;;;;;;6100345;29;20055;-68
2021/11/22 17:23:37;;;;;;;13.27;9.90;;;;;;;;;;6104205;29;20501;-67
2021/11/22 17:26:39;;;;;;;15.48;9.85;;;;;;;;;;6076708;29;20406;-67
2021/11/22 17:29:42;;;;;;;14.23;10.63;;;;;;;;;;6097116;29;20040;-67
2021/11/22 17:32:44;;;;;;;14.05;10.60;;;;;;;;;;6073131;29;20063;-67
2021/11/22 17:35:46;;;;;;;16.55;11.48;;;;;;;;;;6085149;29;20062;-67
2021/11/22 17:38:48;;;;;;;17.20;11.35;;;;;;;;;;6097497;29;20048;-66
2021/11/22 17:41:50;;;;;;;17.67;11.80;;;;;;;;;;6085227;29;20052;-66
2021/11/22 17:44:52;;;;;;;16.20;12.30;;;;;;;;;;6094933;29;20050;-66
2021/11/22 17:47:53;;;;;;;15.38;11.68;;;;;;;;;;6076860;29;20059;-66